createdAt,value
2023-04-25T05:03:38.057Z,38.93
2023-04-25T05:05:52.800Z,37.78
2023-04-25T05:06:53.798Z,37.68
2023-04-25T05:07:53.804Z,37.60
2023-04-25T05:08:52.764Z,37.58
2023-04-25T05:09:52.738Z,37.51
2023-04-25T05:10:53.769Z,37.48
2023-04-25T05:11:53.743Z,37.49
2023-04-25T05:12:52.727Z,37.47
2023-04-25T05:13:53.956Z,37.46
2023-04-25T05:14:53.714Z,37.37
2023-04-25T05:15:53.695Z,37.11
2023-04-25T05:16:53.809Z,37.20
2023-04-25T05:17:53.762Z,37.22
2023-04-25T05:18:53.697Z,37.15
2023-04-25T05:19:53.670Z,37.20
2023-04-25T05:20:53.664Z,37.24
2023-04-25T05:21:53.672Z,37.30
2023-04-25T05:22:53.662Z,37.30
2023-04-25T05:23:53.831Z,37.30
2023-04-25T05:24:55.739Z,37.23
2023-04-25T05:25:52.641Z,37.18
2023-04-25T05:26:52.637Z,36.67
2023-04-25T05:27:53.648Z,36.93
2023-04-25T05:28:53.632Z,37.02
2023-04-25T05:29:52.598Z,37.04
2023-04-25T05:30:53.601Z,37.00
2023-04-25T05:31:52.694Z,36.91
2023-04-25T05:32:53.598Z,36.71
2023-04-25T05:33:53.630Z,36.62
2023-04-25T05:34:52.714Z,36.68
2023-04-25T05:35:53.587Z,36.52
2023-04-25T05:36:53.552Z,36.66
2023-04-25T05:37:53.547Z,36.86
2023-04-25T05:38:52.555Z,37.14
2023-04-25T05:39:52.581Z,37.40
2023-04-25T05:40:53.541Z,37.51
2023-04-25T05:41:52.561Z,37.35
2023-04-25T05:42:53.522Z,37.16
2023-04-25T05:43:55.516Z,37.24
2023-04-25T05:44:53.548Z,37.27
2023-04-25T05:45:52.532Z,37.27
2023-04-25T05:46:52.478Z,37.47
2023-04-25T05:47:53.516Z,37.60
2023-04-25T05:48:53.464Z,37.56
2023-04-25T05:49:53.468Z,37.79
2023-04-25T05:50:53.507Z,37.78
2023-04-25T05:51:53.700Z,37.96
2023-04-25T05:52:52.534Z,38.10
2023-04-25T05:53:53.678Z,38.10
2023-04-25T05:54:53.580Z,38.19
2023-04-25T05:55:52.578Z,38.45
2023-04-25T05:56:53.609Z,38.48
2023-04-25T05:57:52.607Z,38.93
2023-04-25T05:58:53.611Z,39.02
2023-04-25T05:59:52.637Z,38.94
2023-04-25T06:00:53.643Z,37.41
2023-04-25T06:01:53.040Z,36.67
2023-04-25T06:02:53.785Z,35.70
2023-04-25T06:03:54.045Z,35.52
2023-04-25T06:04:52.889Z,35.68
2023-04-25T06:05:53.773Z,35.50
2023-04-25T06:06:52.773Z,35.57
2023-04-25T06:07:53.785Z,35.78
2023-04-25T06:08:52.842Z,36.13
2023-04-25T06:09:53.839Z,35.18
2023-04-25T06:10:52.886Z,35.38
2023-04-25T06:11:52.945Z,35.80
2023-04-25T06:12:52.954Z,35.59
2023-04-25T06:13:53.145Z,35.83
2023-04-25T06:14:54.005Z,35.68
2023-04-25T06:15:54.029Z,35.89
2023-04-25T06:16:53.058Z,35.76
2023-04-25T06:17:54.154Z,35.76
2023-04-25T06:18:53.161Z,35.32
2023-04-25T06:19:53.213Z,34.91
2023-04-25T06:20:54.278Z,34.33
2023-04-25T06:21:54.340Z,34.02
2023-04-25T06:22:54.409Z,33.92
2023-04-25T06:23:54.584Z,33.82
2023-04-25T06:24:53.530Z,33.80
2023-04-25T06:25:54.562Z,33.58
2023-04-25T06:26:54.598Z,33.44
2023-04-25T06:27:54.639Z,33.60
2023-04-25T06:28:54.616Z,33.51
2023-04-25T06:29:54.644Z,33.77
2023-04-25T06:30:53.706Z,34.07
2023-04-25T06:31:54.743Z,34.37
2023-04-25T06:32:54.789Z,34.37
2023-04-25T06:33:54.799Z,34.25
2023-04-25T06:34:54.780Z,34.35
2023-04-25T06:35:54.784Z,34.72
2023-04-25T06:36:53.794Z,34.85
2023-04-25T06:37:54.815Z,35.02
2023-04-25T06:38:54.900Z,35.09
2023-04-25T06:39:53.944Z,35.25
2023-04-25T06:40:54.991Z,35.20
2023-04-25T06:41:55.055Z,35.11
2023-04-25T06:42:55.090Z,35.44
2023-04-25T06:43:55.115Z,35.14
2023-04-25T06:44:55.170Z,35.35
2023-04-25T06:45:55.179Z,35.45
2023-04-25T06:46:55.298Z,35.41
2023-04-25T06:47:55.275Z,35.29
2023-04-25T06:48:55.249Z,35.46
2023-04-25T06:49:54.264Z,35.57
2023-04-25T06:50:54.294Z,36.02
2023-04-25T06:51:55.523Z,35.60
2023-04-25T06:52:55.315Z,35.89
2023-04-25T06:53:55.299Z,35.51
2023-04-25T06:54:54.376Z,35.14
2023-04-25T06:55:55.341Z,34.59
2023-04-25T06:57:24.994Z,35.85
2023-04-25T06:58:25.825Z,36.29
2023-04-25T06:59:24.804Z,36.50
2023-04-25T07:00:24.800Z,36.67
2023-04-25T07:01:25.885Z,37.03
2023-04-25T07:02:25.885Z,37.28
2023-04-25T07:03:24.990Z,37.79
2023-04-25T07:04:25.880Z,38.02
2023-04-25T07:05:24.764Z,38.29
2023-04-25T07:06:25.792Z,38.97
2023-04-25T07:07:24.757Z,38.56
2023-04-25T07:08:25.759Z,38.95
2023-04-25T07:09:25.740Z,38.98
2023-04-25T07:10:25.835Z,39.55
2023-04-25T07:11:24.741Z,39.29
2023-04-25T07:12:24.811Z,39.29
2023-04-25T07:13:25.704Z,39.31
2023-04-25T07:14:25.721Z,39.70
2023-04-25T07:15:24.701Z,39.80
2023-04-25T07:16:25.787Z,39.99
2023-04-25T07:17:25.753Z,40.27
2023-04-25T07:18:25.701Z,40.44
2023-04-25T07:19:25.664Z,39.90
2023-04-25T07:20:25.723Z,40.18
2023-04-25T07:21:25.662Z,40.63
2023-04-25T07:22:25.655Z,40.57
2023-04-25T07:23:25.640Z,40.51
2023-04-25T07:24:24.632Z,40.65
2023-04-25T07:25:25.663Z,40.85
2023-04-25T07:26:25.637Z,40.69
2023-04-25T07:27:25.615Z,40.67
2023-04-25T07:28:25.628Z,40.35
2023-04-25T07:29:24.608Z,40.29
2023-04-25T07:30:25.698Z,40.62
2023-04-25T07:31:25.615Z,40.74
2023-04-25T07:32:24.790Z,40.63
2023-04-25T07:33:25.573Z,40.95
2023-04-25T07:34:25.566Z,40.72
2023-04-25T07:35:24.557Z,41.10
2023-04-25T07:36:25.568Z,41.02
2023-04-25T07:37:25.551Z,41.28
2023-04-25T07:38:24.558Z,41.32
2023-04-25T07:39:25.561Z,41.72
2023-04-25T07:40:24.540Z,41.43
2023-04-25T07:41:25.517Z,41.54
2023-04-25T07:42:25.539Z,41.86
2023-04-25T07:43:24.506Z,41.58
2023-04-25T07:44:24.513Z,42.28
2023-04-25T07:45:24.527Z,42.07
2023-04-25T07:46:25.545Z,42.42
2023-04-25T07:47:25.567Z,41.49
2023-04-25T07:48:24.517Z,42.03
2023-04-25T07:49:24.518Z,42.78
2023-04-25T07:50:25.507Z,42.75
2023-04-25T07:51:25.553Z,43.00
2023-04-25T07:52:26.063Z,43.08
2023-04-25T07:53:25.533Z,43.15
2023-04-25T07:54:25.544Z,43.12
2023-04-25T07:55:24.565Z,43.04
2023-04-25T07:56:25.545Z,42.83
2023-04-25T07:57:25.543Z,43.00
2023-04-25T07:58:25.574Z,42.75
2023-04-25T07:59:24.669Z,43.14
2023-04-25T08:00:25.638Z,43.46
2023-04-25T08:01:25.586Z,43.85
2023-04-25T08:02:25.570Z,43.67
2023-04-25T08:03:25.900Z,43.72
2023-04-25T08:04:25.828Z,44.07
2023-04-25T08:05:25.630Z,44.33
2023-04-25T08:06:25.701Z,44.29
2023-04-25T08:07:25.536Z,44.18
2023-04-25T08:08:25.582Z,44.47
2023-04-25T08:09:25.573Z,44.53
2023-04-25T08:10:25.539Z,44.58
2023-04-25T08:11:25.625Z,44.66
2023-04-25T08:12:24.619Z,44.75
2023-04-25T08:13:25.552Z,44.70
2023-04-25T08:14:25.595Z,45.04
2023-04-25T08:15:25.598Z,44.83
2023-04-25T08:16:25.691Z,44.92
2023-04-25T08:17:24.630Z,44.64
2023-04-25T08:18:25.694Z,44.73
2023-04-25T08:19:25.653Z,44.66
2023-04-25T08:20:25.634Z,44.84
2023-04-25T08:21:24.663Z,45.17
2023-04-25T08:22:24.684Z,44.63
2023-04-25T08:23:25.720Z,45.03
2023-04-25T08:24:25.797Z,44.90
2023-04-25T08:25:25.764Z,44.83
2023-04-25T08:26:24.780Z,44.75
2023-04-25T08:27:25.811Z,44.73
2023-04-25T08:28:25.859Z,44.44
2023-04-25T08:29:25.871Z,44.62
2023-04-25T08:30:25.931Z,44.57
2023-04-25T08:31:26.008Z,44.69
2023-04-25T08:32:24.945Z,44.30
2023-04-25T08:33:25.980Z,44.28
2023-04-25T08:34:25.988Z,44.25
2023-04-25T08:35:25.970Z,43.96
2023-04-25T08:36:38.451Z,44.09
2023-04-25T08:37:26.057Z,43.90
2023-04-25T08:38:25.010Z,44.40
2023-04-25T08:39:26.008Z,44.21
2023-04-25T08:40:25.977Z,43.71
2023-04-25T08:41:25.981Z,44.27
2023-04-25T08:42:25.071Z,43.87
2023-04-25T08:43:25.950Z,43.99
2023-04-25T08:44:24.972Z,41.17
2023-04-25T08:45:25.941Z,40.69
2023-04-25T08:46:26.000Z,39.52
2023-04-25T08:47:25.958Z,36.15
2023-04-25T08:48:25.920Z,35.57
2023-04-25T08:49:24.899Z,35.90
2023-04-25T08:50:25.932Z,35.01
2023-04-25T08:51:25.919Z,35.10
2023-04-25T08:52:24.905Z,34.16
2023-04-25T08:53:26.187Z,34.98
2023-04-25T08:54:34.737Z,35.04
2023-04-25T08:55:25.866Z,34.57
2023-04-25T08:56:25.853Z,34.78
2023-04-25T08:57:25.081Z,34.84
2023-04-25T08:58:25.834Z,34.81
2023-04-25T08:59:25.844Z,34.74
2023-04-25T09:00:24.821Z,34.49
2023-04-25T09:01:25.855Z,33.82
2023-04-25T09:02:25.235Z,34.11
2023-04-25T09:03:25.231Z,33.84
2023-04-25T09:04:25.837Z,33.72
2023-04-25T09:05:24.822Z,32.85
2023-04-25T09:06:25.760Z,32.65
2023-04-25T09:07:24.776Z,32.92
2023-04-25T09:08:25.754Z,32.58
2023-04-25T09:09:25.769Z,32.86
2023-04-25T09:10:25.737Z,32.82
2023-04-25T09:11:25.740Z,32.86
2023-04-25T09:12:24.750Z,33.53
2023-04-25T09:13:24.709Z,34.05
2023-04-25T09:14:24.706Z,34.40
2023-04-25T09:15:25.727Z,34.05
2023-04-25T09:16:24.708Z,34.19
2023-04-25T09:17:25.718Z,34.45
2023-04-25T09:18:29.871Z,34.68
2023-04-25T09:19:37.461Z,34.69
2023-04-25T09:20:25.698Z,34.88
2023-04-25T09:21:24.752Z,34.94
2023-04-25T09:22:24.689Z,34.82
2023-04-25T09:23:25.669Z,34.96
2023-04-25T09:24:25.691Z,35.44
2023-04-25T09:25:25.674Z,35.29
2023-04-25T09:26:25.646Z,35.55
2023-04-25T09:27:25.681Z,35.72
2023-04-25T09:28:26.046Z,35.53
2023-04-25T09:29:25.635Z,35.81
2023-04-25T09:30:24.628Z,36.06
2023-04-25T09:31:25.844Z,36.10
2023-04-25T09:32:24.878Z,36.09
2023-04-25T09:33:25.640Z,36.76
2023-04-25T09:34:25.676Z,36.55
2023-04-25T09:35:52.107Z,36.57
2023-04-25T09:36:52.098Z,36.62
2023-04-25T09:37:53.121Z,36.93
2023-04-25T09:38:53.097Z,37.11
